Time;durP1;ratioP1;P1;durP2;ratioP2;P2;SDS_P1;SDS_P2;PMS_P1;PMS_P2;Temp;Humidity;BMP_temperature;BMP_pressure;BME280_temperature;BME280_humidity;BME280_pressure;Samples;Min_cycle;Max_cycle;Signal;HPM_P1;HPM_P2
2024/01/21 00:02:02;;;;;;;2.05;1.25;;;21.30;48.50;;;;;;5069609;28;20032;-67
2024/01/21 00:04:28;;;;;;;1.88;1.35;;;21.30;48.50;;;;;;5076861;28;20034;-68
2024/01/21 00:06:53;;;;;;;2.08;1.30;;;21.30;48.60;;;;;;5076696;28;20028;-68
2024/01/21 00:09:19;;;;;;;2.17;1.50;;;21.20;48.50;;;;;;5077233;28;20509;-67
2024/01/21 00:11:44;;;;;;;2.00;1.40;;;21.20;48.50;;;;;;5078756;28;20024;-67
2024/01/21 00:14:10;;;;;;;3.20;1.58;;;21.20;48.50;;;;;;5078576;28;20048;-67
2024/01/21 00:16:36;;;;;;;1.85;1.40;;;21.20;48.50;;;;;;5078526;28;20020;-67
2024/01/21 00:19:01;;;;;;;1.80;1.30;;;21.20;48.50;;;;;;5078150;28;20043;-67
2024/01/21 00:21:27;;;;;;;2.00;1.40;;;21.20;48.40;;;;;;5078519;28;20106;-67
2024/01/21 00:23:52;;;;;;;1.80;1.38;;;21.20;48.40;;;;;;5078322;28;20027;-67
2024/01/21 00:26:18;;;;;;;2.90;1.67;;;21.10;48.30;;;;;;5080534;28;20101;-67
2024/01/21 00:28:44;;;;;;;2.10;1.45;;;21.10;48.30;;;;;;5077686;28;20124;-65
2024/01/21 00:31:10;;;;;;;1.95;1.40;;;21.20;48.80;;;;;;5079573;28;20020;-65
2024/01/21 00:33:36;;;;;;;2.25;1.50;;;21.10;48.30;;;;;;5079804;28;20032;-65
2024/01/21 00:36:01;;;;;;;2.72;1.70;;;21.10;48.30;;;;;;5079376;28;20392;-66
2024/01/21 00:38:27;;;;;;;2.20;1.52;;;21.00;48.20;;;;;;5060963;28;20307;-69
2024/01/21 00:40:52;;;;;;;2.28;1.40;;;21.10;48.30;;;;;;5057345;28;20035;-69
2024/01/21 00:43:18;;;;;;;2.10;1.45;;;21.10;48.30;;;;;;5058813;28;20440;-69
2024/01/21 00:45:43;;;;;;;2.28;1.63;;;21.00;48.20;;;;;;5058439;28;20040;-69
2024/01/21 00:48:09;;;;;;;1.92;1.42;;;21.00;48.20;;;;;;5058632;28;20040;-69
2024/01/21 00:50:35;;;;;;;1.95;1.40;;;21.00;48.70;;;;;;5057948;28;20491;-69
2024/01/21 00:53:00;;;;;;;2.47;1.50;;;20.90;48.20;;;;;;5049234;28;20041;-69
2024/01/21 00:55:26;;;;;;;2.00;1.50;;;20.90;48.20;;;;;;5038292;28;20020;-69
2024/01/21 00:57:51;;;;;;;2.47;1.60;;;20.90;48.20;;;;;;5058749;28;20052;-69
2024/01/21 01:00:18;;;;;;;2.25;1.40;;;20.90;48.20;;;;;;5057329;28;20159;-69
2024/01/21 01:02:44;;;;;;;1.85;1.35;;;20.90;48.20;;;;;;5057119;28;20025;-69
2024/01/21 01:05:10;;;;;;;1.75;1.40;;;20.80;48.10;;;;;;5048054;28;20090;-69
2024/01/21 01:07:35;;;;;;;2.40;1.45;;;20.80;48.10;;;;;;5056747;28;20032;-69
2024/01/21 01:10:01;;;;;;;2.30;1.40;;;20.90;48.20;;;;;;5056133;28;20142;-68
2024/01/21 01:12:26;;;;;;;2.35;1.40;;;20.80;48.10;;;;;;5048380;28;20112;-69
2024/01/21 01:14:52;;;;;;;2.08;1.48;;;20.80;48.10;;;;;;5058637;28;20392;-69
2024/01/21 01:17:18;;;;;;;1.90;1.40;;;20.80;48.20;;;;;;5060524;28;20033;-69
2024/01/21 01:19:43;;;;;;;2.55;1.42;;;20.80;48.10;;;;;;5060415;28;20079;-69
2024/01/21 01:22:09;;;;;;;3.03;1.60;;;20.70;48.10;;;;;;5061244;28;20048;-69
2024/01/21 01:24:35;;;;;;;2.97;1.50;;;20.70;48.10;;;;;;5060466;28;20020;-69
2024/01/21 01:27:01;;;;;;;2.30;1.50;;;20.70;48.10;;;;;;5060734;28;20392;-69
2024/01/21 01:29:26;;;;;;;2.67;1.52;;;20.70;48.20;;;;;;5052720;28;20068;-69
2024/01/21 01:31:52;;;;;;;2.30;1.70;;;20.70;48.20;;;;;;5051729;28;20504;-69
2024/01/21 01:34:17;;;;;;;2.33;1.42;;;20.70;48.20;;;;;;5062722;28;20029;-69
2024/01/21 01:36:43;;;;;;;2.50;1.50;;;20.70;48.20;;;;;;5062963;28;20036;-67
2024/01/21 01:39:09;;;;;;;2.63;1.50;;;20.60;48.20;;;;;;5060677;28;20627;-69
2024/01/21 01:41:34;;;;;;;2.42;1.48;;;20.60;48.20;;;;;;5063094;28;20029;-69
2024/01/21 01:44:00;;;;;;;2.00;1.50;;;20.60;48.20;;;;;;5061251;28;20068;-69
2024/01/21 01:46:26;;;;;;;2.42;1.52;;;20.60;48.30;;;;;;5061660;28;20028;-69
2024/01/21 01:48:51;;;;;;;2.30;1.33;;;20.50;48.20;;;;;;5062354;28;20057;-66
2024/01/21 01:51:18;;;;;;;1.67;1.25;;;20.50;48.30;;;;;;5061699;28;20029;-65
2024/01/21 01:53:44;;;;;;;2.30;1.50;;;20.50;48.30;;;;;;5060408;28;20441;-66
2024/01/21 01:56:11;;;;;;;2.38;1.50;;;20.50;48.30;;;;;;5061563;28;20106;-65
2024/01/21 01:58:38;;;;;;;2.08;1.42;;;20.50;48.30;;;;;;5059546;28;20024;-66
2024/01/21 02:01:04;;;;;;;1.98;1.33;;;20.50;48.30;;;;;;5061895;28;20024;-65
2024/01/21 02:03:29;;;;;;;2.42;1.55;;;20.40;48.30;;;;;;5060986;28;20036;-65
2024/01/21 02:05:55;;;;;;;1.60;1.20;;;20.40;48.30;;;;;;5069714;28;20036;-66
2024/01/21 02:08:21;;;;;;;1.58;1.30;;;20.40;48.30;;;;;;5081007;28;20378;-66
2024/01/21 02:10:46;;;;;;;1.95;1.40;;;20.40;48.40;;;;;;5078219;28;20028;-66
2024/01/21 02:13:21;;;;;;;2.60;1.55;;;20.40;48.40;;;;;;5080855;28;20031;-66
2024/01/21 02:15:47;;;;;;;2.67;1.58;;;20.40;48.40;;;;;;5080734;28;20545;-66
2024/01/21 02:18:12;;;;;;;2.38;1.60;;;20.30;48.30;;;;;;5078102;28;20064;-66
2024/01/21 02:20:38;;;;;;;2.10;1.50;;;20.30;48.40;;;;;;5084193;28;20477;-66
2024/01/21 02:23:06;;;;;;;2.30;1.60;;;20.30;48.40;;;;;;5080651;28;20074;-66
2024/01/21 02:25:32;;;;;;;2.20;1.42;;;20.30;48.40;;;;;;5079565;28;20047;-65
2024/01/21 02:27:58;;;;;;;2.05;1.40;;;20.30;48.50;;;;;;5079649;28;20044;-65
2024/01/21 02:30:23;;;;;;;1.80;1.30;;;20.30;48.40;;;;;;5080761;28;20484;-66
2024/01/21 02:32:49;;;;;;;1.67;1.20;;;20.20;48.40;;;;;;5080983;28;20372;-65
2024/01/21 02:35:14;;;;;;;1.98;1.38;;;20.20;48.40;;;;;;5080706;28;20150;-66
2024/01/21 02:37:41;;;;;;;2.15;1.50;;;20.20;48.50;;;;;;5082297;28;20480;-65
2024/01/21 02:40:07;;;;;;;3.03;1.60;;;20.20;48.50;;;;;;5077331;28;20044;-66
2024/01/21 02:42:33;;;;;;;1.85;1.40;;;20.20;48.50;;;;;;5081007;28;20361;-65
2024/01/21 02:44:58;;;;;;;1.83;1.40;;;20.20;48.60;;;;;;5081536;28;20028;-65
2024/01/21 02:47:24;;;;;;;1.88;1.30;;;20.10;48.50;;;;;;5081798;28;20035;-66
2024/01/21 02:49:50;;;;;;;2.25;1.45;;;20.10;48.50;;;;;;5080254;28;20396;-65
2024/01/21 02:52:15;;;;;;;2.08;1.50;;;20.10;48.50;;;;;;5061517;28;20031;-65
2024/01/21 02:54:41;;;;;;;1.67;1.30;;;20.10;48.50;;;;;;5079213;28;20032;-66
2024/01/21 02:57:07;;;;;;;1.77;1.30;;;20.10;48.50;;;;;;5080179;28;20029;-69
2024/01/21 02:59:32;;;;;;;2.10;1.50;;;20.10;48.60;;;;;;5080608;28;20028;-69
2024/01/21 03:01:58;;;;;;;2.45;1.55;;;20.10;48.60;;;;;;5080198;28;20155;-69
2024/01/21 03:04:23;;;;;;;1.90;1.27;;;20.00;48.60;;;;;;5070962;28;20030;-69
2024/01/21 03:06:49;;;;;;;1.63;1.20;;;20.00;48.70;;;;;;5071207;28;20086;-69
2024/01/21 03:09:15;;;;;;;2.00;1.30;;;20.00;48.70;;;;;;5061519;28;20028;-69
2024/01/21 03:11:40;;;;;;;2.03;1.20;;;20.00;48.70;;;;;;5078053;28;20107;-69
2024/01/21 03:14:07;;;;;;;2.13;1.42;;;20.00;48.70;;;;;;5063091;28;20376;-69
2024/01/21 03:16:33;;;;;;;1.77;1.20;;;19.90;48.60;;;;;;5079380;28;20020;-69
2024/01/21 03:18:58;;;;;;;1.95;1.30;;;19.90;48.70;;;;;;5079904;28;20035;-69
2024/01/21 03:21:24;;;;;;;1.90;1.33;;;19.90;48.80;;;;;;5081565;28;20484;-70
2024/01/21 03:23:49;;;;;;;1.95;1.23;;;19.90;48.80;;;;;;5069874;28;20116;-69
2024/01/21 03:26:15;;;;;;;2.00;1.30;;;19.80;48.70;;;;;;5068852;28;20036;-69
2024/01/21 03:28:41;;;;;;;1.98;1.13;;;19.80;48.80;;;;;;5078766;28;20563;-69
2024/01/21 03:31:06;;;;;;;1.83;1.23;;;19.80;48.80;;;;;;5079684;28;20077;-69
2024/01/21 03:33:32;;;;;;;1.75;1.30;;;19.80;48.80;;;;;;5078765;28;20089;-69
2024/01/21 03:35:58;;;;;;;1.90;1.40;;;19.80;48.80;;;;;;5076792;28;20028;-69
2024/01/21 03:38:23;;;;;;;1.70;1.20;;;19.80;48.80;;;;;;5078694;28;20124;-69
2024/01/21 03:40:49;;;;;;;1.70;1.20;;;19.70;49.30;;;;;;5078373;28;20948;-69
2024/01/21 03:43:15;;;;;;;1.88;1.27;;;19.70;48.90;;;;;;5079238;28;20111;-70
2024/01/21 03:45:40;;;;;;;2.17;1.20;;;19.70;48.90;;;;;;5081349;28;20388;-69
2024/01/21 03:48:06;;;;;;;1.50;1.10;;;19.70;48.90;;;;;;5079185;28;20035;-69
2024/01/21 03:50:32;;;;;;;1.60;1.20;;;19.70;48.90;;;;;;5077461;28;20480;-69
2024/01/21 03:52:58;;;;;;;1.70;1.13;;;19.70;49.00;;;;;;5078533;28;20162;-69
2024/01/21 03:55:24;;;;;;;2.05;1.20;;;19.70;49.00;;;;;;5078467;28;20012;-69
2024/01/21 03:57:50;;;;;;;2.05;1.42;;;19.60;49.00;;;;;;5076754;28;20081;-69
2024/01/21 04:00:16;;;;;;;1.80;1.13;;;19.60;49.00;;;;;;5078553;28;20101;-70
2024/01/21 04:02:41;;;;;;;1.77;1.30;;;19.60;49.00;;;;;;5078197;28;20416;-70
2024/01/21 04:05:07;;;;;;;1.75;1.02;;;19.60;49.00;;;;;;5080367;28;20039;-69
2024/01/21 04:07:33;;;;;;;2.00;1.30;;;19.60;49.10;;;;;;5078417;28;20033;-67
2024/01/21 04:09:59;;;;;;;1.70;1.10;;;19.60;49.10;;;;;;5078920;28;20038;-66
2024/01/21 04:12:25;;;;;;;1.65;1.17;;;19.60;49.10;;;;;;5078769;28;20496;-66
2024/01/21 04:14:51;;;;;;;1.90;1.15;;;19.50;49.10;;;;;;5079208;28;20024;-66
2024/01/21 04:17:17;;;;;;;1.92;1.10;;;19.50;49.10;;;;;;5075290;28;20024;-67
2024/01/21 04:19:43;;;;;;;1.88;1.20;;;19.50;49.20;;;;;;5078930;28;20480;-66
2024/01/21 04:22:08;;;;;;;1.63;1.13;;;19.50;49.20;;;;;;5078602;28;20024;-66
2024/01/21 04:24:34;;;;;;;2.15;1.40;;;19.50;49.20;;;;;;5078879;28;20086;-67
2024/01/21 04:27:00;;;;;;;1.48;1.10;;;19.50;49.70;;;;;;5076608;28;20442;-67
2024/01/21 04:29:25;;;;;;;1.60;1.20;;;19.50;49.20;;;;;;5069169;28;20120;-67
2024/01/21 04:31:51;;;;;;;2.00;1.20;;;19.50;49.20;;;;;;5078869;28;20133;-67
2024/01/21 04:34:17;;;;;;;1.65;1.20;;;19.40;49.70;;;;;;5079911;28;20388;-67
2024/01/21 04:36:43;;;;;;;1.75;1.20;;;19.40;49.20;;;;;;5075671;28;20431;-67
2024/01/21 04:39:09;;;;;;;2.05;1.20;;;19.40;49.20;;;;;;5077869;28;20102;-66
2024/01/21 04:41:35;;;;;;;1.63;1.10;;;19.40;49.20;;;;;;5092674;28;20429;-67
2024/01/21 04:44:01;;;;;;;1.60;1.00;;;19.40;49.20;;;;;;5078087;28;20028;-67
2024/01/21 04:46:26;;;;;;;1.77;1.15;;;19.40;49.20;;;;;;5078883;28;20472;-67
2024/01/21 04:48:52;;;;;;;1.20;1.10;;;19.40;49.20;;;;;;5067243;28;20084;-67
2024/01/21 04:51:18;;;;;;;1.40;1.00;;;19.40;49.20;;;;;;5061345;28;20064;-67
2024/01/21 04:53:44;;;;;;;1.52;1.20;;;19.40;49.20;;;;;;5060808;28;20021;-67
2024/01/21 04:56:16;;;;;;;2.13;1.20;;;19.40;49.30;;;;;;5061372;28;20029;-67
2024/01/21 04:58:42;;;;;;;1.60;1.15;;;19.40;49.30;;;;;;5060647;28;20021;-67
2024/01/21 05:01:07;;;;;;;1.50;1.10;;;19.30;49.20;;;;;;5063988;28;20035;-67
2024/01/21 05:03:33;;;;;;;1.70;1.10;;;19.40;49.30;;;;;;5062962;28;20063;-67
2024/01/21 05:05:59;;;;;;;1.60;1.08;;;19.40;49.30;;;;;;5063311;28;20499;-67
2024/01/21 05:08:24;;;;;;;1.70;1.20;;;19.40;49.30;;;;;;5060224;28;20094;-67
2024/01/21 05:10:50;;;;;;;1.70;1.20;;;19.30;49.80;;;;;;5093440;28;20028;-67
2024/01/21 05:13:16;;;;;;;2.00;1.30;;;19.40;49.30;;;;;;5059535;28;20028;-67
2024/01/21 05:15:41;;;;;;;1.70;1.30;;;19.30;49.30;;;;;;5062879;28;20033;-66
2024/01/21 05:18:07;;;;;;;1.70;1.20;;;19.30;49.30;;;;;;5063159;28;20017;-67
2024/01/21 05:20:33;;;;;;;1.80;1.30;;;19.30;49.30;;;;;;5063148;28;20388;-65
2024/01/21 05:22:59;;;;;;;1.88;1.20;;;19.30;49.30;;;;;;5059728;28;20028;-66
2024/01/21 05:25:25;;;;;;;1.58;1.20;;;19.30;49.30;;;;;;5060961;28;20021;-66
2024/01/21 05:27:50;;;;;;;1.33;1.13;;;19.30;49.30;;;;;;5059921;28;20429;-66
2024/01/21 05:30:16;;;;;;;2.97;1.13;;;19.30;49.40;;;;;;5061273;28;20028;-67
2024/01/21 05:32:46;;;;;;;2.03;1.30;;;19.30;49.90;;;;;;5062301;28;20472;-66
2024/01/21 05:35:12;;;;;;;;;;;19.30;49.40;;;;;;5061145;28;20492;-66
2024/01/21 05:37:37;;;;;;;2.10;1.40;;;19.30;49.40;;;;;;5062137;28;20388;-67
2024/01/21 05:40:03;;;;;;;2.05;1.30;;;19.20;49.30;;;;;;5061550;28;20021;-66
2024/01/21 05:42:29;;;;;;;1.55;1.05;;;19.30;49.40;;;;;;5058976;28;20397;-67
2024/01/21 05:44:55;;;;;;;1.50;1.10;;;19.30;49.40;;;;;;5062113;28;20029;-66
2024/01/21 05:47:21;;;;;;;1.90;1.20;;;19.20;49.40;;;;;;5061742;28;20017;-66
2024/01/21 05:49:46;;;;;;;1.50;1.20;;;19.20;49.40;;;;;;5060710;28;20083;-66
2024/01/21 05:52:12;;;;;;;1.77;1.30;;;19.20;49.40;;;;;;5060681;28;20020;-67
2024/01/21 05:54:39;;;;;;;1.65;1.10;;;19.20;49.40;;;;;;5060978;28;20044;-66
2024/01/21 05:57:05;;;;;;;2.13;1.20;;;19.20;49.40;;;;;;5061193;28;20032;-65
2024/01/21 05:59:32;;;;;;;2.03;1.40;;;19.20;49.40;;;;;;5060237;28;20060;-66
2024/01/21 06:01:57;;;;;;;1.67;1.20;;;19.20;49.40;;;;;;5060405;28;20388;-67
2024/01/21 06:04:23;;;;;;;1.70;1.30;;;19.20;49.40;;;;;;5059018;28;20025;-66
2024/01/21 06:06:49;;;;;;;1.60;1.10;;;19.20;49.40;;;;;;5061188;28;20059;-66
2024/01/21 06:09:15;;;;;;;1.85;1.20;;;19.20;49.50;;;;;;5041098;28;20056;-66
2024/01/21 06:11:45;;;;;;;1.80;1.30;;;19.20;49.40;;;;;;5058283;28;20414;-66
2024/01/21 06:14:11;;;;;;;1.98;1.20;;;19.20;49.50;;;;;;5060142;28;20029;-66
2024/01/21 06:16:37;;;;;;;1.83;1.40;;;19.20;50.00;;;;;;5060558;28;20033;-66
2024/01/21 06:19:03;;;;;;;1.95;1.23;;;19.20;49.50;;;;;;5062380;28;20438;-66
2024/01/21 06:21:29;;;;;;;1.50;1.10;;;19.20;50.00;;;;;;5058289;28;20036;-66
2024/01/21 06:23:56;;;;;;;1.88;1.23;;;19.10;49.50;;;;;;5058941;28;20084;-66
2024/01/21 06:26:22;;;;;;;1.70;1.30;;;19.10;49.40;;;;;;5058713;28;20036;-66
2024/01/21 06:28:48;;;;;;;1.88;1.20;;;19.10;49.50;;;;;;5050685;28;20927;-67
2024/01/21 06:31:14;;;;;;;2.00;1.30;;;19.10;49.50;;;;;;5059011;28;20397;-67
2024/01/21 06:33:41;;;;;;;1.90;1.20;;;19.10;49.50;;;;;;5059932;28;20031;-67
2024/01/21 06:36:07;;;;;;;1.70;1.20;;;19.10;49.50;;;;;;5060344;28;20412;-67
2024/01/21 06:38:33;;;;;;;1.67;1.17;;;19.10;49.50;;;;;;5058470;28;20039;-67
2024/01/21 06:40:58;;;;;;;1.80;1.20;;;19.10;49.50;;;;;;5059458;28;20021;-67
2024/01/21 06:43:24;;;;;;;1.65;1.17;;;19.10;49.50;;;;;;5057485;28;20147;-67
2024/01/21 06:45:50;;;;;;;1.70;1.20;;;19.10;49.50;;;;;;5059949;28;20068;-67
2024/01/21 06:48:15;;;;;;;1.55;1.20;;;19.10;49.50;;;;;;5048734;28;20035;-67
2024/01/21 06:50:41;;;;;;;1.65;1.13;;;19.10;49.50;;;;;;5061090;28;20076;-67
2024/01/21 06:53:07;;;;;;;1.63;1.10;;;19.10;49.50;;;;;;5060919;28;20413;-67
2024/01/21 06:55:33;;;;;;;1.80;1.20;;;19.10;49.50;;;;;;5059767;28;20376;-67
2024/01/21 06:57:58;;;;;;;2.05;1.30;;;19.10;49.50;;;;;;5058121;28;20110;-67
2024/01/21 07:00:24;;;;;;;1.50;1.10;;;19.10;49.50;;;;;;5058445;28;20032;-67
2024/01/21 07:02:49;;;;;;;1.67;1.13;;;19.10;49.60;;;;;;5059494;28;20036;-67
2024/01/21 07:05:15;;;;;;;1.73;1.20;;;19.10;50.10;;;;;;5059800;28;20116;-67
2024/01/21 07:07:41;;;;;;;1.73;1.30;;;19.10;49.60;;;;;;5060548;28;20029;-67
2024/01/21 07:10:07;;;;;;;1.65;1.10;;;19.10;49.60;;;;;;5058096;28;20453;-67
2024/01/21 07:12:33;;;;;;;1.60;1.15;;;19.10;49.60;;;;;;5059146;28;20035;-67
2024/01/21 07:14:58;;;;;;;1.67;1.10;;;19.10;49.60;;;;;;5057012;28;20029;-67
2024/01/21 07:17:24;;;;;;;1.63;1.10;;;19.00;49.60;;;;;;5060098;28;20021;-67
2024/01/21 07:19:53;;;;;;;2.25;1.25;;;19.00;49.60;;;;;;5057728;28;20036;-67
2024/01/21 07:22:20;;;;;;;;;;;19.00;49.60;;;;;;5059979;28;20086;-67
2024/01/21 07:24:45;;;;;;;1.23;1.10;;;19.00;49.60;;;;;;5041994;28;19978;-67
2024/01/21 07:27:11;;;;;;;1.55;1.10;;;19.00;49.60;;;;;;5057251;28;20557;-67
2024/01/21 07:29:38;;;;;;;1.73;1.17;;;19.00;49.70;;;;;;5058172;28;20446;-65
2024/01/21 07:32:04;;;;;;;2.13;1.23;;;19.00;49.60;;;;;;5060226;28;20423;-65
2024/01/21 07:34:30;;;;;;;1.88;1.20;;;19.00;49.70;;;;;;5059133;28;20029;-65
2024/01/21 07:36:55;;;;;;;1.60;1.20;;;19.00;49.70;;;;;;5059407;28;20468;-67
2024/01/21 07:39:21;;;;;;;1.73;1.20;;;19.00;49.70;;;;;;5058429;28;20025;-69
2024/01/21 07:41:47;;;;;;;2.85;1.30;;;19.00;49.70;;;;;;5055721;28;20024;-69
2024/01/21 07:44:12;;;;;;;1.85;1.20;;;19.00;49.70;;;;;;5058874;28;20024;-69
2024/01/21 07:46:38;;;;;;;1.60;1.15;;;19.00;49.70;;;;;;5057454;28;20103;-69
2024/01/21 07:49:04;;;;;;;1.80;1.38;;;19.00;49.80;;;;;;5059379;28;20037;-69
2024/01/21 07:51:29;;;;;;;1.92;1.35;;;19.00;49.70;;;;;;5059567;28;20068;-69
2024/01/21 07:53:55;;;;;;;2.28;1.20;;;19.00;49.80;;;;;;5057179;28;20390;-69
2024/01/21 07:56:22;;;;;;;2.50;1.30;;;19.00;49.80;;;;;;5058523;28;20465;-69
2024/01/21 07:58:47;;;;;;;1.77;1.13;;;19.00;49.80;;;;;;5056096;28;20477;-69
2024/01/21 08:01:13;;;;;;;2.15;1.30;;;19.00;49.80;;;;;;5054373;28;20068;-69
2024/01/21 08:03:39;;;;;;;2.85;1.30;;;19.00;49.80;;;;;;5057417;28;20024;-69
2024/01/21 08:06:07;;;;;;;2.40;1.20;;;19.00;49.80;;;;;;5056417;28;20139;-69
2024/01/21 08:08:33;;;;;;;2.33;1.38;;;19.00;49.80;;;;;;5058660;28;20473;-69
2024/01/21 08:10:59;;;;;;;1.75;1.17;;;19.00;50.40;;;;;;5049522;28;20032;-69
2024/01/21 08:13:25;;;;;;;2.17;1.30;;;19.00;49.90;;;;;;5056091;28;20083;-69
2024/01/21 08:15:51;;;;;;;2.13;1.30;;;19.00;49.90;;;;;;5058349;28;20440;-69
2024/01/21 08:18:19;;;;;;;2.08;1.30;;;19.00;50.40;;;;;;5058694;28;20021;-69
2024/01/21 08:20:45;;;;;;;2.03;1.30;;;19.00;49.90;;;;;;5074689;28;20135;-69
2024/01/21 08:23:10;;;;;;;2.25;1.30;;;19.00;49.90;;;;;;5049613;28;20621;-69
2024/01/21 08:25:36;;;;;;;2.00;1.30;;;19.00;49.90;;;;;;5057660;28;20029;-69
2024/01/21 08:28:02;;;;;;;2.03;1.17;;;18.90;49.90;;;;;;5058698;28;20119;-69
2024/01/21 08:30:28;;;;;;;1.88;1.20;;;19.00;50.00;;;;;;5055255;28;20479;-69
2024/01/21 08:32:54;;;;;;;2.28;1.40;;;18.90;49.90;;;;;;5058726;28;20016;-69
2024/01/21 08:35:20;;;;;;;2.03;1.30;;;18.90;50.00;;;;;;5056028;28;20024;-69
2024/01/21 08:37:47;;;;;;;2.97;1.23;;;19.00;50.00;;;;;;5057642;28;20039;-69
2024/01/21 08:40:13;;;;;;;2.10;1.30;;;18.90;50.00;;;;;;5057572;28;20059;-69
2024/01/21 08:42:39;;;;;;;2.00;1.30;;;18.90;50.00;;;;;;5038538;28;20032;-69
2024/01/21 08:45:05;;;;;;;2.08;1.35;;;18.90;50.00;;;;;;5057188;28;20409;-69
2024/01/21 08:47:31;;;;;;;2.28;1.60;;;18.90;50.00;;;;;;5048182;28;20043;-66
2024/01/21 08:49:57;;;;;;;2.70;1.40;;;18.90;50.00;;;;;;5057814;28;20021;-67
2024/01/21 08:52:22;;;;;;;2.00;1.20;;;18.90;50.00;;;;;;5058118;28;20025;-67
2024/01/21 08:54:48;;;;;;;3.38;1.38;;;19.00;50.10;;;;;;5057062;28;20025;-66
2024/01/21 08:57:14;;;;;;;2.00;1.30;;;18.90;50.10;;;;;;5055106;28;20028;-67
2024/01/21 08:59:39;;;;;;;2.10;1.25;;;18.90;50.10;;;;;;5058092;28;20104;-67
2024/01/21 09:02:05;;;;;;;2.38;1.38;;;18.90;50.10;;;;;;5058132;28;20147;-67
2024/01/21 09:04:31;;;;;;;2.35;1.30;;;18.90;50.10;;;;;;5057243;28;20032;-67
2024/01/21 09:06:56;;;;;;;2.35;1.40;;;18.90;50.10;;;;;;5057958;28;20028;-67
2024/01/21 09:09:22;;;;;;;2.50;1.50;;;18.90;50.10;;;;;;5060037;28;20040;-67
2024/01/21 09:11:48;;;;;;;2.80;1.40;;;18.90;50.20;;;;;;5056984;28;20025;-66
2024/01/21 09:14:14;;;;;;;3.88;1.70;;;18.90;50.10;;;;;;5055470;28;20037;-67
2024/01/21 09:16:39;;;;;;;2.20;1.30;;;18.90;50.20;;;;;;5059110;28;20024;-66
2024/01/21 09:19:05;;;;;;;2.67;1.25;;;18.90;50.20;;;;;;5056918;28;20071;-67
2024/01/21 09:21:33;;;;;;;2.40;1.50;;;18.90;50.20;;;;;;5048130;28;20400;-67
2024/01/21 09:24:03;;;;;;;2.13;1.23;;;18.90;50.20;;;;;;5058085;28;20553;-67
2024/01/21 09:26:29;;;;;;;1.77;1.20;;;18.90;50.20;;;;;;5058988;28;20052;-67
2024/01/21 09:28:55;;;;;;;2.03;1.33;;;18.90;50.30;;;;;;5054742;28;20492;-67
2024/01/21 09:31:20;;;;;;;2.13;1.40;;;18.90;50.20;;;;;;5056259;28;20024;-67
2024/01/21 09:33:46;;;;;;;2.08;1.50;;;18.90;50.30;;;;;;5058610;28;20059;-67
2024/01/21 09:36:12;;;;;;;1.92;1.40;;;18.90;50.30;;;;;;5058042;28;20033;-67
2024/01/21 09:38:37;;;;;;;2.10;1.33;;;18.90;50.30;;;;;;5060932;28;20029;-68
2024/01/21 09:41:26;;;;;;;1.90;1.27;;;18.90;50.30;;;;;;5061408;28;20040;-68
2024/01/21 09:43:52;;;;;;;1.85;1.30;;;18.90;50.30;;;;;;5059749;28;20028;-68
2024/01/21 09:46:17;;;;;;;2.63;1.50;;;18.90;50.40;;;;;;5061256;28;20704;-69
2024/01/21 09:48:44;;;;;;;2.05;1.30;;;18.90;50.40;;;;;;5060561;28;20083;-66
2024/01/21 09:51:10;;;;;;;3.10;1.50;;;18.90;50.40;;;;;;5062711;28;20086;-66
2024/01/21 09:53:36;;;;;;;2.38;1.52;;;18.90;50.40;;;;;;5061236;28;20439;-67
2024/01/21 09:56:10;;;;;;;2.50;1.50;;;18.90;50.40;;;;;;5061399;28;20107;-65
2024/01/21 09:58:50;;;;;;;1.98;1.40;;;18.90;50.40;;;;;;5059189;28;20032;-70
2024/01/21 10:01:17;;;;;;;2.63;1.60;;;18.90;50.50;;;;;;5062777;28;20032;-71
2024/01/21 10:03:46;;;;;;;2.17;1.30;;;18.90;50.40;;;;;;5059358;28;20096;-71
2024/01/21 10:06:12;;;;;;;;;;;18.90;50.50;;;;;;5060876;28;20021;-71
2024/01/21 10:08:44;;;;;;;2.05;1.30;;;18.90;50.50;;;;;;5057502;28;20376;-71
2024/01/21 10:11:10;;;;;;;2.20;1.30;;;18.90;50.40;;;;;;5059888;28;20081;-71
2024/01/21 10:13:39;;;;;;;2.70;1.27;;;18.90;50.70;;;;;;5058726;28;20021;-71
2024/01/21 10:16:09;;;;;;;2.07;1.30;;;19.00;50.90;;;;;;5061424;28;20024;-70
2024/01/21 10:18:35;;;;;;;1.92;1.27;;;19.00;50.90;;;;;;5059640;28;20263;-70
2024/01/21 10:21:05;;;;;;;1.70;1.40;;;19.10;51.00;;;;;;5061379;28;20032;-70
2024/01/21 10:23:32;;;;;;;2.25;1.30;;;19.20;51.00;;;;;;5061960;28;20024;-69
2024/01/21 10:25:58;;;;;;;1.67;1.17;;;19.30;50.90;;;;;;5060137;28;20439;-69
2024/01/21 10:28:23;;;;;;;2.45;1.40;;;19.40;50.90;;;;;;5060702;28;20055;-69
2024/01/21 10:30:49;;;;;;;2.45;1.52;;;19.60;50.80;;;;;;5061043;28;20499;-68
2024/01/21 10:33:15;;;;;;;1.90;1.30;;;19.60;50.50;;;;;;5062604;28;20040;-68
2024/01/21 10:35:41;;;;;;;2.42;1.42;;;19.70;50.40;;;;;;5060319;28;20040;-68
2024/01/21 10:38:11;;;;;;;1.60;1.00;;;19.80;50.10;;;;;;5061642;28;20048;-68
2024/01/21 10:40:44;;;;;;;1.95;1.10;;;19.90;50.00;;;;;;5060837;28;20036;-68
2024/01/21 10:43:16;;;;;;;1.83;1.20;;;19.90;50.00;;;;;;5050104;28;20040;-68
2024/01/21 10:45:46;;;;;;;1.85;1.38;;;19.90;50.10;;;;;;5059263;28;20936;-68
2024/01/21 10:48:15;;;;;;;2.08;1.30;;;19.90;50.00;;;;;;5062284;28;20028;-68
2024/01/21 10:50:42;;;;;;;2.00;1.30;;;20.00;50.00;;;;;;5059536;28;20024;-67
2024/01/21 10:53:12;;;;;;;2.10;1.30;;;20.00;49.90;;;;;;5061598;28;20028;-68
2024/01/21 10:55:41;;;;;;;1.80;1.30;;;20.00;49.90;;;;;;5058792;28;20052;-68
2024/01/21 10:58:08;;;;;;;2.90;1.20;;;20.10;49.90;;;;;;5051302;28;20028;-66
2024/01/21 11:00:35;;;;;;;1.48;1.10;;;20.20;49.80;;;;;;5061441;28;20515;-65
2024/01/21 11:03:27;;;;;;;1.83;1.15;;;20.20;49.70;;;;;;5060181;28;20392;-65
2024/01/21 11:06:07;;;;;;;2.60;1.30;;;20.30;49.70;;;;;;5058465;28;20033;-66
2024/01/21 11:08:34;;;;;;;2.22;1.35;;;20.40;49.60;;;;;;5060224;28;20393;-66
2024/01/21 11:11:02;;;;;;;1.75;1.10;;;20.40;49.50;;;;;;5058415;28;20086;-66
2024/01/21 11:13:51;;;;;;;2.40;1.40;;;20.40;49.50;;;;;;5056899;28;20025;-65
2024/01/21 11:16:26;;;;;;;2.38;1.50;;;20.50;49.40;;;;;;5060868;28;20051;-66
2024/01/21 11:19:07;;;;;;;2.17;1.35;;;20.60;49.40;;;;;;5059892;28;20073;-65
2024/01/21 11:21:39;;;;;;;1.60;1.13;;;20.60;49.20;;;;;;5079226;28;20028;-66
2024/01/21 11:24:06;;;;;;;1.80;1.20;;;20.60;49.30;;;;;;5080576;28;20038;-66
2024/01/21 11:26:34;;;;;;;1.92;1.30;;;20.70;49.20;;;;;;5078826;28;20029;-66
2024/01/21 11:29:02;;;;;;;1.90;1.38;;;20.70;49.10;;;;;;5076020;28;20029;-65
2024/01/21 11:31:34;;;;;;;1.98;1.35;;;20.80;49.10;;;;;;5080862;28;20031;-66
2024/01/21 11:34:03;;;;;;;2.35;1.30;;;20.90;49.10;;;;;;5079218;28;20017;-66
2024/01/21 11:36:31;;;;;;;1.50;1.10;;;20.90;48.90;;;;;;5079889;28;20039;-65
2024/01/21 11:38:57;;;;;;;2.17;1.10;;;20.90;48.80;;;;;;5078325;28;20063;-66
2024/01/21 11:41:30;;;;;;;1.90;1.27;;;20.90;49.20;;;;;;5080986;28;20532;-66
2024/01/21 11:43:56;;;;;;;2.10;1.23;;;21.00;48.70;;;;;;5077260;28;20051;-67
2024/01/21 11:46:22;;;;;;;2.05;1.30;;;21.00;48.70;;;;;;5080119;28;20071;-67
2024/01/21 11:48:48;;;;;;;1.75;1.20;;;21.00;48.60;;;;;;5077901;28;20047;-66
2024/01/21 11:51:14;;;;;;;1.58;1.20;;;20.90;48.50;;;;;;5079589;28;20473;-64
2024/01/21 11:53:39;;;;;;;1.55;1.20;;;21.00;48.70;;;;;;5078358;28;20027;-64
2024/01/21 11:56:05;;;;;;;1.90;1.08;;;20.90;49.10;;;;;;5076948;28;20103;-64
2024/01/21 11:58:33;;;;;;;1.85;1.10;;;20.90;48.60;;;;;;5094559;28;20375;-64
2024/01/21 12:00:59;;;;;;;1.92;1.38;;;20.90;48.70;;;;;;5076900;28;20411;-64
2024/01/21 12:03:24;;;;;;;1.58;1.13;;;20.80;48.60;;;;;;5076865;28;20109;-64
2024/01/21 12:05:50;;;;;;;1.75;1.25;;;20.80;48.70;;;;;;5060444;28;20023;-64
2024/01/21 12:08:16;;;;;;;1.75;1.20;;;20.80;48.70;;;;;;5078796;28;20078;-62
2024/01/21 12:10:43;;;;;;;1.90;1.17;;;20.80;48.70;;;;;;5077155;28;20040;-62
2024/01/21 12:13:08;;;;;;;1.90;1.20;;;20.70;48.70;;;;;;5077665;28;20115;-62
2024/01/21 12:15:35;;;;;;;1.98;1.30;;;20.70;48.80;;;;;;5077137;28;20107;-63
2024/01/21 12:18:01;;;;;;;1.67;1.25;;;20.70;49.30;;;;;;5076998;28;20139;-62
2024/01/21 12:20:27;;;;;;;1.75;1.15;;;20.60;48.80;;;;;;5061721;28;20028;-64
2024/01/21 12:22:53;;;;;;;2.05;1.30;;;20.60;48.90;;;;;;5078173;28;20031;-63
2024/01/21 12:25:18;;;;;;;1.63;1.20;;;20.60;49.00;;;;;;5079112;28;20052;-63
2024/01/21 12:27:45;;;;;;;1.73;1.20;;;20.60;49.00;;;;;;5078368;28;20542;-64
2024/01/21 12:30:12;;;;;;;1.58;1.15;;;20.60;49.00;;;;;;5078386;28;20044;-63
2024/01/21 12:32:42;;;;;;;1.98;1.27;;;20.60;49.10;;;;;;5078364;28;20055;-62
2024/01/21 12:35:08;;;;;;;2.83;1.33;;;20.50;49.10;;;;;;5078698;28;20017;-65
2024/01/21 12:37:34;;;;;;;2.85;1.60;;;20.50;49.20;;;;;;5079204;28;20036;-65
2024/01/21 12:40:00;;;;;;;2.40;1.60;;;20.60;49.20;;;;;;5079941;28;20441;-65
2024/01/21 12:42:26;;;;;;;2.08;1.40;;;20.60;49.20;;;;;;5078218;28;20024;-65
2024/01/21 12:44:52;;;;;;;2.30;1.50;;;20.60;49.20;;;;;;5077868;28;20551;-66